createdAt,value
2018-12-31T00:00:08.828Z,3.6
2018-12-31T00:05:03.121Z,3.6
2018-12-31T00:10:05.101Z,3.5
2018-12-31T00:15:10.103Z,3.4
2018-12-31T00:20:15.859Z,3.4
2018-12-31T00:25:03.263Z,3.4
2018-12-31T00:30:15.891Z,3.4
2018-12-31T00:35:05.666Z,3.5
2018-12-31T00:40:10.742Z,3.5
2018-12-31T00:45:03.060Z,3.5
2018-12-31T00:50:10.668Z,3.6
2018-12-31T00:55:10.615Z,3.6
2018-12-31T01:00:10.191Z,3.7
2018-12-31T01:05:07.686Z,3.7
2018-12-31T01:10:08.183Z,3.8
2018-12-31T01:15:30.947Z,3.8
2018-12-31T01:20:08.129Z,3.9
2018-12-31T01:25:03.009Z,3.8
2018-12-31T01:30:28.307Z,3.8
2018-12-31T01:35:08.354Z,3.9
2018-12-31T01:40:07.901Z,3.8
2018-12-31T01:45:20.509Z,3.8
2018-12-31T01:50:20.230Z,3.9
2018-12-31T01:55:05.029Z,3.9
2018-12-31T02:00:20.783Z,3.9
2018-12-31T02:05:10.675Z,4
2018-12-31T02:10:08.208Z,3.9
2018-12-31T02:15:05.651Z,4
2018-12-31T02:20:02.781Z,4
2018-12-31T02:25:15.461Z,4
2018-12-31T02:30:02.427Z,4
2018-12-31T02:35:05.007Z,4.1
2018-12-31T02:40:05.559Z,4.1
2018-12-31T02:45:05.509Z,4.1
2018-12-31T02:50:15.150Z,4.1
2018-12-31T02:55:10.120Z,4.2
2018-12-31T03:00:13.383Z,4.2
2018-12-31T03:05:20.858Z,4.2
2018-12-31T03:10:05.862Z,4.2
2018-12-31T03:15:09.919Z,4.2
2018-12-31T03:20:25.817Z,4.3
2018-12-31T03:25:15.466Z,4.3
2018-12-31T03:30:02.530Z,4.3
2018-12-31T03:35:02.558Z,4.3
2018-12-31T03:40:20.832Z,4.3
2018-12-31T03:45:08.280Z,4.3
2018-12-31T03:50:03.281Z,4.3
2018-12-31T03:55:02.359Z,4.3
2018-12-31T04:00:04.871Z,4.4
2018-12-31T04:05:02.433Z,4.4
2018-12-31T04:10:02.945Z,4.4
2018-12-31T04:15:02.967Z,4.4
2018-12-31T04:20:08.159Z,4.4
2018-12-31T04:25:05.634Z,4.4
2018-12-31T04:30:05.204Z,4.4
2018-12-31T04:35:10.310Z,4.4
2018-12-31T04:40:02.813Z,4.4
2018-12-31T04:45:10.305Z,4.5
2018-12-31T04:50:04.868Z,4.4
2018-12-31T04:55:05.049Z,4.6
2018-12-31T05:00:05.540Z,4.6
2018-12-31T05:05:28.301Z,4.6
2018-12-31T05:10:20.500Z,4.7
2018-12-31T05:20:07.974Z,4.6
2018-12-31T05:25:05.497Z,4.6
2018-12-31T05:30:05.091Z,4.7
2018-12-31T05:35:10.118Z,4.7
2018-12-31T05:40:35.542Z,4.8
2018-12-31T05:45:15.227Z,4.8
2018-12-31T05:50:05.742Z,4.8
2018-12-31T05:55:02.355Z,4.8
2018-12-31T06:05:20.043Z,4.9
2018-12-31T06:15:07.655Z,5
2018-12-31T06:20:05.296Z,5
2018-12-31T06:25:02.847Z,5
2018-12-31T06:30:02.643Z,5
2018-12-31T06:35:05.163Z,5
2018-12-31T06:40:02.674Z,5
2018-12-31T06:45:07.791Z,5
2018-12-31T06:50:05.344Z,5
2018-12-31T06:55:05.271Z,5
2018-12-31T07:00:05.826Z,5.1
2018-12-31T07:05:12.414Z,5.1
2018-12-31T07:10:05.452Z,5.1
2018-12-31T07:15:03.032Z,5.1
2018-12-31T07:20:18.430Z,5.2
2018-12-31T07:25:05.602Z,5.2
2018-12-31T07:30:05.141Z,5.2
2018-12-31T07:40:10.866Z,5.3
2018-12-31T07:45:07.438Z,5.3
2018-12-31T07:50:07.559Z,5.3
2018-12-31T07:55:04.959Z,5.4
2018-12-31T08:00:08.052Z,5.4
2018-12-31T08:05:08.059Z,5.4
2018-12-31T08:10:02.534Z,5.4
2018-12-31T08:15:02.578Z,5.4
2018-12-31T08:20:35.616Z,5.5
2018-12-31T08:25:02.673Z,5.5
2018-12-31T08:30:10.283Z,2.2
2018-12-31T08:35:33.269Z,5.6
2018-12-31T08:40:15.420Z,5.6
2018-12-31T08:45:05.330Z,5.7
2018-12-31T08:50:07.390Z,5.7
2018-12-31T08:55:07.390Z,5.7
2018-12-31T09:00:04.931Z,5.8
2018-12-31T09:05:15.116Z,5.9
2018-12-31T09:10:02.566Z,5.9
2018-12-31T09:15:07.718Z,5.9
2018-12-31T09:20:05.390Z,6
2018-12-31T09:25:13.042Z,6
2018-12-31T09:30:23.257Z,6
2018-12-31T09:35:03.074Z,6
2018-12-31T09:40:05.064Z,6.1
2018-12-31T09:45:05.045Z,6.2
2018-12-31T09:50:03.003Z,6.1
2018-12-31T09:55:15.594Z,6.3
2018-12-31T10:00:05.121Z,6.4
2018-12-31T10:05:17.791Z,6.3
2018-12-31T10:10:05.831Z,6.3
2018-12-31T10:15:07.420Z,6.4
2018-12-31T10:20:02.522Z,6.4
2018-12-31T10:25:20.236Z,6.5
2018-12-31T10:30:08.353Z,6.5
2018-12-31T10:35:10.847Z,6.6
2018-12-31T10:40:05.041Z,6.6
2018-12-31T10:45:27.740Z,6.7
2018-12-31T10:50:17.969Z,6.7
2018-12-31T10:55:02.751Z,6.7
2018-12-31T11:00:07.841Z,6.7
2018-12-31T11:05:07.899Z,6.7
2018-12-31T11:10:04.995Z,6.7
2018-12-31T11:15:28.507Z,6.8
2018-12-31T11:20:02.635Z,6.8
2018-12-31T11:25:12.746Z,7
2018-12-31T11:30:05.261Z,7.1
2018-12-31T11:35:05.279Z,7.2
2018-12-31T11:40:07.901Z,7.2
2018-12-31T11:45:08.011Z,7.2
2018-12-31T11:50:08.184Z,7.2
2018-12-31T11:55:10.766Z,7.2
2018-12-31T12:00:02.778Z,7.2
2018-12-31T12:05:08.060Z,7.3
2018-12-31T12:10:07.608Z,7.3
2018-12-31T12:15:10.180Z,7.3
2018-12-31T12:20:02.313Z,7.3
2018-12-31T12:25:30.832Z,7.3
2018-12-31T12:30:03.029Z,7.3
2018-12-31T12:35:05.421Z,7.4
2018-12-31T12:40:08.242Z,7.4
2018-12-31T12:45:10.320Z,7.6
2018-12-31T12:50:25.223Z,7.7
2018-12-31T12:55:36.165Z,7.8
2018-12-31T13:00:08.332Z,7.7
2018-12-31T13:05:22.610Z,7.6
2018-12-31T13:10:17.747Z,7.7
2018-12-31T13:15:07.742Z,7.9
2018-12-31T13:20:18.166Z,7.9
2018-12-31T13:25:05.692Z,7.9
2018-12-31T13:30:05.288Z,7.8
2018-12-31T13:35:30.762Z,7.8
2018-12-31T13:40:02.334Z,7.8
2018-12-31T13:45:05.723Z,7.7
2018-12-31T13:50:10.418Z,7.6
2018-12-31T13:55:02.346Z,7.6
2018-12-31T14:00:02.395Z,7.6
2018-12-31T14:05:07.578Z,7.5
2018-12-31T14:10:07.991Z,7.5
2018-12-31T14:15:05.519Z,7.5
2018-12-31T14:20:15.906Z,7.5
2018-12-31T14:25:20.071Z,7.4
2018-12-31T14:30:05.260Z,7.4
2018-12-31T14:35:05.510Z,7.4
2018-12-31T14:40:03.187Z,7.4
2018-12-31T14:45:05.804Z,7.3
2018-12-31T14:50:02.830Z,7.3
2018-12-31T14:55:17.799Z,7.3
2018-12-31T15:00:02.834Z,7.3
2018-12-31T15:05:18.102Z,7.2
2018-12-31T15:10:25.461Z,7.2
2018-12-31T15:15:05.062Z,7.2
2018-12-31T15:20:10.127Z,7.2
2018-12-31T15:25:05.167Z,7.2
2018-12-31T15:30:05.249Z,7.1
2018-12-31T15:35:02.703Z,7.2
2018-12-31T15:40:10.383Z,7.1
2018-12-31T15:45:08.002Z,7.1
2018-12-31T15:50:30.673Z,7.1
2018-12-31T15:55:12.813Z,7.1
2018-12-31T16:00:10.830Z,7.1
2018-12-31T16:05:18.041Z,7.1
2018-12-31T16:10:02.642Z,7.1
2018-12-31T16:15:07.671Z,7
2018-12-31T16:20:12.890Z,7
2018-12-31T16:25:15.532Z,7
2018-12-31T16:30:10.722Z,7
2018-12-31T16:35:18.373Z,7
2018-12-31T16:40:02.915Z,7
2018-12-31T16:45:13.198Z,7
2018-12-31T16:50:03.271Z,7
2018-12-31T16:55:07.957Z,7
2018-12-31T17:00:05.536Z,7
2018-12-31T17:05:08.207Z,7
2018-12-31T17:10:10.300Z,7
2018-12-31T17:15:07.851Z,7
2018-12-31T17:20:02.977Z,7
2018-12-31T17:30:02.472Z,7
2018-12-31T17:35:12.612Z,7
2018-12-31T17:40:13.251Z,7
2018-12-31T17:45:22.727Z,7
2018-12-31T17:50:05.316Z,7
2018-12-31T17:55:23.410Z,7
2018-12-31T18:00:25.943Z,7
2018-12-31T18:05:18.153Z,7.1
2018-12-31T18:10:05.244Z,7.1
2018-12-31T18:15:28.018Z,7.1
2018-12-31T18:20:31.018Z,7.1
2018-12-31T18:25:05.601Z,7.2
2018-12-31T18:30:07.719Z,7.1
2018-12-31T18:35:10.292Z,7.1
2018-12-31T18:40:22.260Z,7.2
2018-12-31T18:45:05.506Z,7.2
2018-12-31T18:50:05.554Z,7.2
2018-12-31T18:55:05.691Z,7.2
2018-12-31T19:00:02.670Z,7.1
2018-12-31T19:05:02.726Z,7.2
2018-12-31T19:10:02.372Z,7.2
2018-12-31T19:15:05.733Z,7.2
2018-12-31T19:20:15.519Z,7.2
2018-12-31T19:25:02.904Z,7.2
2018-12-31T19:30:20.683Z,7.2
2018-12-31T19:35:03.045Z,7.2
2018-12-31T19:40:03.150Z,7.3
2018-12-31T19:45:08.159Z,7.4
2018-12-31T19:50:05.447Z,7.4
2018-12-31T19:55:18.200Z,7.4
2018-12-31T20:00:07.819Z,7.4
2018-12-31T20:05:10.373Z,7.5
2018-12-31T20:10:02.850Z,7.5
2018-12-31T20:15:02.532Z,7.5
2018-12-31T20:20:20.479Z,7.6
2018-12-31T20:25:02.794Z,7.6
2018-12-31T20:30:23.181Z,7.7
2018-12-31T20:35:10.816Z,7.7
2018-12-31T20:40:10.072Z,7.8
2018-12-31T20:45:07.627Z,7.8
2018-12-31T20:50:02.792Z,7.8
2018-12-31T20:55:10.646Z,7.8
2018-12-31T21:00:17.920Z,7.9
2018-12-31T21:05:18.140Z,7.9
2018-12-31T21:10:35.579Z,8
2018-12-31T21:15:10.247Z,8
2018-12-31T21:20:04.936Z,8
2018-12-31T21:25:07.530Z,8
2018-12-31T21:30:05.177Z,8.1
2018-12-31T21:35:12.807Z,8.1
2018-12-31T21:40:10.287Z,8.1
2018-12-31T21:45:25.923Z,8.1
2018-12-31T21:50:02.672Z,8.1
2018-12-31T21:55:05.312Z,8.2
2018-12-31T22:00:04.977Z,8.2
2018-12-31T22:05:17.712Z,8.2
2018-12-31T22:10:10.036Z,8.2
2018-12-31T22:15:04.972Z,8.2
2018-12-31T22:25:12.865Z,8.2
2018-12-31T22:30:20.654Z,8.3
2018-12-31T22:35:03.044Z,8.3
2018-12-31T22:40:05.148Z,8.3
2018-12-31T22:45:17.483Z,8.3
2018-12-31T22:50:07.580Z,8.3
2018-12-31T22:55:05.133Z,8.3
2018-12-31T23:00:25.985Z,8.3
2018-12-31T23:05:03.005Z,8.3
2018-12-31T23:10:07.637Z,8.4
2018-12-31T23:15:20.890Z,8.5
2018-12-31T23:20:15.694Z,8.5
2018-12-31T23:25:03.169Z,8.5
2018-12-31T23:30:05.107Z,8.5
2018-12-31T23:35:02.633Z,8.5
2018-12-31T23:40:05.791Z,8.5
2018-12-31T23:45:05.351Z,8.6
2018-12-31T23:50:12.473Z,8.6
2018-12-31T23:55:02.505Z,8.6
